Maersk Kalea — 9VHF3 — position and weather

sailwx.info

Track history (hours):
 
Tides and Currents Weather Stations Pressure Air Temp Water Temp Dewpoint Dewpoint Depression Visibility Wind Speed Wind Dir Waves Ship Positions

Maersk Kalea

Last reported at 2018-Jan-20 17:50 UTC. Time now 2018-Feb-22 20:53 UTC.
Position N 27°38' W 015°15'.
Warning: this ship's position is 33 days out of date.

Length 173 m; draft 11.9 m.

Type: Ship (hazmat cat A). MMSI: 565814000.

Date/timePositionNaut miles runAvg speedWind from/ knotsBaromVisibWave heightAir tempDewpointWater temp
2018-Jan-20 17:50N 27°38' W 015°15'512.8
2018-Jan-20 17:28N 27°42' W 015°12'612.8
2018-Jan-20 17:00N 27°47' W 015°09'713.1
2018-Jan-20 16:30N 27°53' W 015°06'713.1
2018-Jan-20 16:01N 27°59' W 015°04'612.6
2018-Jan-20 15:30N 28°05' W 015°01'612.8
2018-Jan-20 15:01N 28°11' W 014°58'612.7
2018-Jan-20 14:30N 28°17' W 014°56'612.6
2018-Jan-20 14:01N 28°23' W 014°53'613.0
2018-Jan-20 13:31N 28°28' W 014°48'713.0
2018-Jan-20 13:00N 28°33' W 014°44'612.8
2018-Jan-20 12:30N 28°38' W 014°39'62112.8
2018-Jan-18 11:59N 35°54' W 005°56'713.8
2018-Jan-18 11:28N 35°57' W 005°47'614.2
2018-Jan-18 11:00N 35°57' W 005°39'612.2
2018-Jan-18 10:30N 35°58' W 005°32'510.8
2018-Jan-18 10:00N 35°60' W 005°25'5 9.4
2018-Jan-18 09:30N 36°04' W 005°23'3 6.6
2018-Jan-18 09:00N 36°07' W 005°22'0 0.6
2018-Jan-18 08:30N 36°07' W 005°22'0 0.1
2018-Jan-18 08:00N 36°07' W 005°22'0 0.1
2018-Jan-18 07:27N 36°07' W 005°22'0 0.1
2018-Jan-18 07:00N 36°07' W 005°22'0 0.1
2018-Jan-18 06:30N 36°07' W 005°22'0 0.1
2018-Jan-18 06:00N 36°07' W 005°22'0 0.0
2018-Jan-18 05:24N 36°07' W 005°22'0 0.1
2018-Jan-18 05:00N 36°07' W 005°22'0 0.0
2018-Jan-18 04:30N 36°07' W 005°22'0 0.1
2018-Jan-18 04:00N 36°07' W 005°22'0 0.2
2018-Jan-18 03:30N 36°07' W 005°22'0 0.1
2018-Jan-18 02:57N 36°07' W 005°22'0 0.1
2018-Jan-18 02:30N 36°07' W 005°22'0 0.1
2018-Jan-18 01:57N 36°07' W 005°22'0 0.1
2018-Jan-18 01:27N 36°07' W 005°22'0 0.1
2018-Jan-18 00:48N 36°07' W 005°22'0 0.1
2018-Jan-18 00:00N 36°07' W 005°22'0 0.1
2018-Jan-17 23:57N 36°07' W 005°22'  
2018-Jan-12 07:00N 36°01' W 004°13'714.2
2018-Jan-12 06:30N 36°01' W 004°22'714.7
2018-Jan-12 06:00N 36°01' W 004°31'713.7
2018-Jan-12 05:29N 36°00' W 004°40'613.1
2018-Jan-12 05:01N 36°00' W 004°47'612.8
2018-Jan-12 04:30N 35°60' W 004°55'814.7
2018-Jan-12 03:59N 35°59' W 005°05'613.3
2018-Jan-12 03:30N 35°59' W 005°13'815.5
2018-Jan-12 03:00N 35°58' W 005°22'917.8
2018-Jan-12 02:31N 35°55' W 005°33'714.0
2018-Jan-12 02:00N 35°54' W 005°41'816.0
2018-Jan-12 01:30N 35°54' W 005°51'715.0
2018-Jan-12 01:00N 35°54' W 006°00'714.3
2018-Jan-12 00:30N 35°54' W 006°09'1313.3
2018-Jan-11 23:29N 35°55' W 006°26'19711.7
2018-Jan-11 06:37N 37°44' W 009°50'112.3
2018-Jan-11 06:30N 37°46' W 009°50'1312.3
2018-Jan-11 05:27N 37°58' W 009°54'612.5
2018-Jan-11 04:59N 38°04' W 009°56'1112.9
2018-Jan-11 04:09N 38°15' W 009°59'213.1
2018-Jan-11 04:00N 38°17' W 009°59'713.4
2018-Jan-11 03:31N 38°23' W 010°01'713.3
2018-Jan-11 03:00N 38°29' W 010°03'713.5
2018-Jan-11 02:30N 38°36' W 010°05'713.1
2018-Jan-11 02:00N 38°42' W 010°06'612.9
2018-Jan-11 01:30N 38°49' W 010°07'612.8
2018-Jan-11 01:00N 38°55' W 010°07'612.8
2018-Jan-11 00:30N 39°02' W 010°07'612.8
2018-Jan-11 00:01N 39°08' W 010°08'612.8
2018-Jan-10 23:30N 39°14' W 010°08'612.7
2018-Jan-10 23:00N 39°21' W 010°07'  
Track history (hours):
 
Tides and Currents Weather Stations Pressure Air Temp Water Temp Dewpoint Dewpoint Depression Visibility Wind Speed Wind Dir Waves Ship Positions

Maersk Kalea

Last reported at 2018-Jan-20 17:50 UTC. Time now 2018-Feb-22 20:53 UTC.
Position N 27°38' W 015°15'.
Warning: this ship's position is 33 days out of date.

Length 173 m; draft 11.9 m.

Type: Ship (hazmat cat A). MMSI: 565814000.

Date/timePositionNaut miles runAvg speedWind from/ knotsBaromVisibWave heightAir tempDewpointWater temp
2018-Jan-20 17:50N 27°38' W 015°15'512.8
2018-Jan-20 17:28N 27°42' W 015°12'612.8
2018-Jan-20 17:00N 27°47' W 015°09'713.1
2018-Jan-20 16:30N 27°53' W 015°06'713.1
2018-Jan-20 16:01N 27°59' W 015°04'612.6
2018-Jan-20 15:30N 28°05' W 015°01'612.8
2018-Jan-20 15:01N 28°11' W 014°58'612.7
2018-Jan-20 14:30N 28°17' W 014°56'612.6
2018-Jan-20 14:01N 28°23' W 014°53'613.0
2018-Jan-20 13:31N 28°28' W 014°48'713.0
2018-Jan-20 13:00N 28°33' W 014°44'612.8
2018-Jan-20 12:30N 28°38' W 014°39'62112.8
2018-Jan-18 11:59N 35°54' W 005°56'713.8
2018-Jan-18 11:28N 35°57' W 005°47'614.2
2018-Jan-18 11:00N 35°57' W 005°39'612.2
2018-Jan-18 10:30N 35°58' W 005°32'510.8
2018-Jan-18 10:00N 35°60' W 005°25'5 9.4
2018-Jan-18 09:30N 36°04' W 005°23'3 6.6
2018-Jan-18 09:00N 36°07' W 005°22'0 0.6
2018-Jan-18 08:30N 36°07' W 005°22'0 0.1
2018-Jan-18 08:00N 36°07' W 005°22'0 0.1
2018-Jan-18 07:27N 36°07' W 005°22'0 0.1
2018-Jan-18 07:00N 36°07' W 005°22'0 0.1
2018-Jan-18 06:30N 36°07' W 005°22'0 0.1
2018-Jan-18 06:00N 36°07' W 005°22'0 0.0
2018-Jan-18 05:24N 36°07' W 005°22'0 0.1
2018-Jan-18 05:00N 36°07' W 005°22'0 0.0
2018-Jan-18 04:30N 36°07' W 005°22'0 0.1
2018-Jan-18 04:00N 36°07' W 005°22'0 0.2
2018-Jan-18 03:30N 36°07' W 005°22'0 0.1
2018-Jan-18 02:57N 36°07' W 005°22'0 0.1
2018-Jan-18 02:30N 36°07' W 005°22'0 0.1
2018-Jan-18 01:57N 36°07' W 005°22'0 0.1
2018-Jan-18 01:27N 36°07' W 005°22'0 0.1
2018-Jan-18 00:48N 36°07' W 005°22'0 0.1
2018-Jan-18 00:00N 36°07' W 005°22'0 0.1
2018-Jan-17 23:57N 36°07' W 005°22'  
2018-Jan-12 07:00N 36°01' W 004°13'714.2
2018-Jan-12 06:30N 36°01' W 004°22'714.7
2018-Jan-12 06:00N 36°01' W 004°31'713.7
2018-Jan-12 05:29N 36°00' W 004°40'613.1
2018-Jan-12 05:01N 36°00' W 004°47'612.8
2018-Jan-12 04:30N 35°60' W 004°55'814.7
2018-Jan-12 03:59N 35°59' W 005°05'613.3
2018-Jan-12 03:30N 35°59' W 005°13'815.5
2018-Jan-12 03:00N 35°58' W 005°22'917.8
2018-Jan-12 02:31N 35°55' W 005°33'714.0
2018-Jan-12 02:00N 35°54' W 005°41'816.0
2018-Jan-12 01:30N 35°54' W 005°51'715.0
2018-Jan-12 01:00N 35°54' W 006°00'714.3
2018-Jan-12 00:30N 35°54' W 006°09'1313.3
2018-Jan-11 23:29N 35°55' W 006°26'19711.7
2018-Jan-11 06:37N 37°44' W 009°50'112.3
2018-Jan-11 06:30N 37°46' W 009°50'1312.3
2018-Jan-11 05:27N 37°58' W 009°54'612.5
2018-Jan-11 04:59N 38°04' W 009°56'1112.9
2018-Jan-11 04:09N 38°15' W 009°59'213.1
2018-Jan-11 04:00N 38°17' W 009°59'713.4
2018-Jan-11 03:31N 38°23' W 010°01'713.3
2018-Jan-11 03:00N 38°29' W 010°03'713.5
2018-Jan-11 02:30N 38°36' W 010°05'713.1
2018-Jan-11 02:00N 38°42' W 010°06'612.9
2018-Jan-11 01:30N 38°49' W 010°07'612.8
2018-Jan-11 01:00N 38°55' W 010°07'612.8
2018-Jan-11 00:30N 39°02' W 010°07'612.8
2018-Jan-11 00:01N 39°08' W 010°08'612.8
2018-Jan-10 23:30N 39°14' W 010°08'612.7
2018-Jan-10 23:00N 39°21' W 010°07'  

Dump ship's entire track history